CheckWX is a tool to help pilots better visualize weather data.  It is not intended as a substitute for an official pre-flight weather briefing.

14:02:29 UTC

KMLJ METAR
Baldwin County Airport
Milledgeville, Georgia, USA
Current

7 mins ago

KMLJ 201355Z AUTO 00000KT 10SM OVC006 25/23 A3011 RMK AO2
Observed
Jul-20 @ 13:55 UTC
Visibility
10 SM
Flight Rules
IFR
Cloud Levels
  • Overcast at 600' AGL
Temperature
25°C / 77°F
Dewpoint
23°C / 73°F
Humidity
89%
Altimeter
30.11" Hg
Pressure
1019.62 hPa
Previous

27 mins ago

KMLJ 201335Z AUTO 00000KT 10SM OVC004 24/22 A3011 RMK AO2
Observed
Jul-20 @ 13:35 UTC
Visibility
10 SM
Flight Rules
LIFR
Cloud Levels
  • Overcast at 400' AGL
Temperature
24°C / 75°F
Dewpoint
22°C / 72°F
Humidity
89%
Altimeter
30.11" Hg
Pressure
1019.62 hPa
Previous

47 mins ago

KMLJ 201315Z AUTO 00000KT 10SM OVC004 23/22 A3012 RMK AO2
Observed
Jul-20 @ 13:15 UTC
Visibility
10 SM
Flight Rules
LIFR
Cloud Levels
  • Overcast at 400' AGL
Temperature
23°C / 73°F
Dewpoint
22°C / 72°F
Humidity
94%
Altimeter
30.12" Hg
Pressure
1020.02 hPa